Time;durP1;ratioP1;P1;durP2;ratioP2;P2;SDS_P1;SDS_P2;PMS_P1;PMS_P2;Temp;Humidity;BMP_temperature;BMP_pressure;BME280_temperature;BME280_humidity;BME280_pressure;Samples;Min_cycle;Max_cycle;Signal;HPM_P1;HPM_P2
2021/06/11 04:00:22;;;;;;;5.03;4.63;;;12.40;96.30;;;;;;5989772;23;21273;-81
2021/06/11 04:02:48;;;;;;;8.83;5.20;;;12.40;96.30;;;;;;4952774;28;20438;-80
2021/06/11 04:05:15;;;;;;;5.50;5.00;;;12.40;96.30;;;;;;4956370;28;20466;-79
2021/06/11 04:07:51;;;;;;;5.80;4.53;;;12.40;96.30;;;;;;4954560;29;20431;-79
2021/06/11 04:10:32;;;;;;;4.73;4.23;;;12.40;96.30;;;;;;4939746;29;20404;-79
2021/06/11 04:13:15;;;;;;;7.30;4.90;;;12.40;96.30;;;;;;4939346;29;20419;-77
2021/06/11 04:15:42;;;;;;;5.23;4.70;;;12.40;96.30;;;;;;4937685;29;20404;-77
2021/06/11 04:18:11;;;;;;;6.07;5.00;;;12.50;96.30;;;;;;4935791;29;20424;-77
2021/06/11 04:20:39;;;;;;;4.93;4.43;;;12.50;96.30;;;;;;4937023;29;20489;-77
2021/06/11 04:23:06;;;;;;;10.90;5.43;;;12.60;96.30;;;;;;4937998;29;20446;-78
2021/06/11 04:25:34;;;;;;;5.73;4.90;;;12.60;96.30;;;;;;4953338;29;20649;-77
2021/06/11 04:28:01;;;;;;;6.07;4.80;;;12.70;96.30;;;;;;4935478;29;20920;-77
2021/06/11 04:30:27;;;;;;;5.30;4.80;;;12.80;96.30;;;;;;4936887;29;20420;-78
2021/06/11 04:32:53;;;;;;;6.40;5.77;;;12.80;96.30;;;;;;4936448;29;20422;-78
2021/06/11 04:35:27;;;;;;;9.83;5.60;;;12.90;96.30;;;;;;4935702;29;20187;-77
2021/06/11 04:37:56;;;;;;;9.97;4.90;;;13.00;96.30;;;;;;4935095;29;20427;-78
2021/06/11 04:40:21;;;;;;;8.00;5.20;;;13.10;96.30;;;;;;4936798;29;20488;-77
2021/06/11 04:42:47;;;;;;;5.40;4.90;;;;;;;;;;4940612;29;20426;-77
2021/06/11 04:45:14;;;;;;;5.23;4.73;;;13.30;96.30;;;;;;4955673;28;20687;-77
2021/06/11 04:47:40;;;;;;;5.60;5.10;;;13.40;96.30;;;;;;4955793;28;20647;-77
2021/06/11 04:50:06;;;;;;;5.30;4.80;;;13.50;96.30;;;;;;4955800;28;20930;-76
2021/06/11 04:52:31;;;;;;;9.77;4.70;;;13.60;96.30;;;;;;4954229;28;20430;-79
2021/06/11 04:54:57;;;;;;;5.50;4.47;;;13.70;96.30;;;;;;4955924;28;20422;-80
2021/06/11 04:57:22;;;;;;;5.00;4.50;;;13.80;96.30;;;;;;4953440;28;20926;-76
2021/06/11 04:59:48;;;;;;;5.70;4.77;;;14.00;96.30;;;;;;4956002;28;20175;-77
2021/06/11 05:02:13;;;;;;;6.60;4.20;;;14.00;96.30;;;;;;4954546;29;20219;-78
2021/06/11 05:04:39;;;;;;;5.00;4.50;;;14.20;96.30;;;;;;4955364;28;20171;-77
2021/06/11 05:07:04;;;;;;;4.93;4.40;;;14.20;96.30;;;;;;4955403;28;20183;-77
2021/06/11 05:09:30;;;;;;;4.53;4.13;;;14.30;96.30;;;;;;4970484;28;20178;-77
2021/06/11 05:11:56;;;;;;;7.33;4.10;;;14.40;96.30;;;;;;4955836;28;20201;-78
2021/06/11 05:14:21;;;;;;;5.93;4.70;;;14.50;96.30;;;;;;4955861;28;20272;-76
2021/06/11 05:16:47;;;;;;;5.00;4.30;;;14.70;96.30;;;;;;4955297;28;20221;-76
2021/06/11 05:19:13;;;;;;;4.70;4.30;;;14.90;96.30;;;;;;4955368;28;20258;-78
2021/06/11 05:21:38;;;;;;;6.33;4.17;;;15.20;96.30;;;;;;4955074;28;20566;-78
2021/06/11 05:24:05;;;;;;;5.23;4.80;;;15.80;96.30;;;;;;4953252;28;20191;-80
2021/06/11 05:26:30;;;;;;;5.13;4.73;;;16.80;96.30;;;;;;4947188;29;20294;-77
2021/06/11 05:28:55;;;;;;;5.20;4.23;;;17.80;96.30;;;;;;4936484;29;20499;-76
2021/06/11 05:31:21;;;;;;;4.57;4.17;;;17.90;96.30;;;;;;4950165;29;20206;-80
2021/06/11 05:33:47;;;;;;;5.33;3.33;;;19.00;96.30;;;;;;4959466;28;20191;-77
2021/06/11 05:36:12;;;;;;;5.37;4.37;;;19.80;96.30;;;;;;4954334;28;20183;-77
2021/06/11 05:38:38;;;;;;;4.67;3.90;;;19.90;96.30;;;;;;4955804;28;20187;-77
2021/06/11 05:41:04;;;;;;;4.37;3.10;;;20.40;96.30;;;;;;4955184;28;20617;-76
2021/06/11 05:43:30;;;;;;;7.60;3.27;;;21.20;96.30;;;;;;4955160;28;20178;-77
2021/06/11 05:45:57;;;;;;;4.20;3.80;;;21.70;96.30;;;;;;4953632;28;20234;-76
2021/06/11 05:48:23;;;;;;;4.30;3.40;;;22.40;96.30;;;;;;4954534;28;20957;-76
2021/06/11 05:50:49;;;;;;;4.23;3.40;;;22.70;95.00;;;;;;4954817;28;20437;-74
2021/06/11 05:53:14;;;;;;;6.30;3.60;;;23.10;93.50;;;;;;4954216;28;20676;-74
2021/06/11 05:55:40;;;;;;;5.60;3.90;;;23.60;92.30;;;;;;4955077;28;20186;-75
2021/06/11 05:58:09;;;;;;;9.40;3.40;;;24.20;89.30;;;;;;4953749;28;20273;-75
2021/06/11 06:00:35;;;;;;;4.80;3.17;;;24.50;89.00;;;;;;4954076;28;20211;-76
2021/06/11 06:03:00;;;;;;;6.77;4.20;;;23.90;90.40;;;;;;4954542;28;20439;-75
2021/06/11 06:05:26;;;;;;;6.13;5.50;;;22.80;94.00;;;;;;4954800;28;20229;-75
2021/06/11 06:07:51;;;;;;;5.63;5.13;;;22.20;94.50;;;;;;4952934;28;20237;-75
2021/06/11 06:10:17;;;;;;;6.33;5.30;;;22.10;94.70;;;;;;4954261;28;20233;-75
2021/06/11 06:12:42;;;;;;;6.40;5.80;;;22.00;96.30;;;;;;4953837;29;20265;-75
2021/06/11 06:15:08;;;;;;;6.27;5.80;;;21.30;95.20;;;;;;4954598;28;20265;-75
2021/06/11 06:17:35;;;;;;;7.60;5.60;;;20.90;96.30;;;;;;4953973;28;20186;-74
2021/06/11 06:20:06;;;;;;;8.50;5.63;;;20.70;96.30;;;;;;4953983;28;20426;-75
2021/06/11 06:22:31;;;;;;;6.90;6.20;;;21.00;96.30;;;;;;4953703;28;20443;-76
2021/06/11 06:24:57;;;;;;;4.40;4.00;;;20.70;96.30;;;;;;4953471;28;20442;-75
2021/06/11 06:27:22;;;;;;;5.03;4.53;;;20.70;96.30;;;;;;4953781;28;20190;-75
2021/06/11 06:29:48;;;;;;;5.90;5.30;;;;;;;;;;4954290;28;20170;-75
2021/06/11 06:32:14;;;;;;;8.00;4.10;;;19.30;96.30;;;;;;4952637;28;20194;-75
2021/06/11 06:34:39;;;;;;;7.30;5.47;;;19.40;96.30;;;;;;4952862;28;20422;-74
2021/06/11 06:37:07;;;;;;;4.73;4.33;;;19.50;96.30;;;;;;4953127;28;20624;-76
2021/06/11 06:39:33;;;;;;;6.00;4.97;;;19.30;96.30;;;;;;4954404;28;20198;-76
2021/06/11 06:41:59;;;;;;;7.67;5.20;;;;;;;;;;4954264;28;20473;-78
2021/06/11 06:44:24;;;;;;;6.50;5.50;;;19.20;96.30;;;;;;4954185;28;20205;-78
2021/06/11 06:46:50;;;;;;;6.53;5.93;;;19.20;96.30;;;;;;4952332;28;20215;-76
2021/06/11 06:49:16;;;;;;;5.77;5.27;;;19.40;96.30;;;;;;4952923;28;20186;-75
2021/06/11 06:51:41;;;;;;;12.80;5.97;;;19.50;96.30;;;;;;4954135;28;20685;-77
2021/06/11 06:54:07;;;;;;;6.70;5.93;;;19.60;96.30;;;;;;4953158;29;20635;-76
2021/06/11 06:56:32;;;;;;;5.90;5.50;;;19.70;96.30;;;;;;4953833;28;20213;-76
2021/06/11 06:58:59;;;;;;;6.33;5.47;;;19.60;96.30;;;;;;4954362;28;20693;-77
2021/06/11 07:01:25;;;;;;;6.70;6.20;;;19.80;96.30;;;;;;4954038;28;20214;-77
2021/06/11 07:03:57;;;;;;;8.53;5.50;;;19.90;96.30;;;;;;4954087;28;20453;-77
2021/06/11 07:06:26;;;;;;;9.83;5.40;;;20.30;96.30;;;;;;4955975;28;20539;-77
2021/06/11 07:08:52;;;;;;;6.70;5.50;;;20.70;96.30;;;;;;4953227;29;20418;-78
2021/06/11 07:11:18;;;;;;;6.53;5.80;;;20.70;96.30;;;;;;4953952;28;20484;-79
2021/06/11 07:13:44;;;;;;;7.33;6.00;;;21.40;96.30;;;;;;4955092;28;20663;-78
2021/06/11 07:16:10;;;;;;;8.40;5.27;;;22.40;96.30;;;;;;4954878;28;20187;-78
2021/06/11 07:18:37;;;;;;;15.87;6.17;;;23.20;95.40;;;;;;4954075;28;20578;-78
2021/06/11 07:21:06;;;;;;;6.80;6.20;;;23.70;94.90;;;;;;4957724;28;20499;-80
2021/06/11 07:23:33;;;;;;;7.43;5.20;;;24.20;91.30;;;;;;4957995;28;20497;-78
2021/06/11 07:26:02;;;;;;;6.10;5.50;;;24.80;91.90;;;;;;4958337;28;20985;-80
2021/06/11 07:28:27;;;;;;;6.43;5.83;;;25.30;88.10;;;;;;4958315;29;20429;-78
2021/06/11 07:30:54;;;;;;;5.87;5.37;;;25.40;87.40;;;;;;4958005;28;20446;-79
2021/06/11 07:33:19;;;;;;;8.53;6.20;;;26.10;84.60;;;;;;4953691;28;20670;-79
2021/06/11 07:35:45;;;;;;;5.57;5.10;;;26.50;84.70;;;;;;4956773;29;20417;-79
2021/06/11 07:38:10;;;;;;;6.10;5.57;;;26.50;80.50;;;;;;4957694;28;20178;-79
2021/06/11 07:40:36;;;;;;;5.20;4.70;;;26.40;82.20;;;;;;4956199;29;20202;-79
2021/06/11 07:43:03;;;;;;;7.87;5.03;;;26.80;84.20;;;;;;4958679;28;20213;-79
2021/06/11 07:45:29;;;;;;;6.73;5.70;;;27.50;80.70;;;;;;4957345;29;20199;-79
2021/06/11 07:47:55;;;;;;;5.90;5.30;;;27.40;84.00;;;;;;4956063;29;20458;-79
2021/06/11 07:50:21;;;;;;;9.10;5.77;;;27.70;82.10;;;;;;4957315;29;21016;-79
2021/06/11 07:52:47;;;;;;;7.13;5.40;;;27.60;81.60;;;;;;4959332;28;20653;-79
2021/06/11 07:55:13;;;;;;;8.40;6.10;;;28.00;79.50;;;;;;4959210;28;20329;-79
2021/06/11 07:57:39;;;;;;;6.50;5.70;;;29.00;80.00;;;;;;4959607;29;20437;-79
2021/06/11 08:00:05;;;;;;;8.63;5.40;;;29.40;77.60;;;;;;4961670;28;20186;-79
2021/06/11 08:02:31;;;;;;;6.67;5.97;;;29.50;77.20;;;;;;4961115;29;20256;-79
2021/06/11 08:04:57;;;;;;;9.67;5.97;;;29.80;74.00;;;;;;4962810;28;20457;-79
2021/06/11 08:07:29;;;;;;;7.03;6.20;;;29.40;72.30;;;;;;4962519;28;20194;-80
2021/06/11 08:09:58;;;;;;;6.40;5.80;;;29.40;76.70;;;;;;4961244;29;20183;-80
2021/06/11 08:12:28;;;;;;;6.30;5.70;;;29.30;79.50;;;;;;4962874;28;20438;-79
2021/06/11 08:14:54;;;;;;;7.40;6.40;;;29.40;77.60;;;;;;4961962;28;20414;-82
2021/06/11 08:17:20;;;;;;;7.17;5.97;;;30.00;74.40;;;;;;4961193;28;20418;-79
2021/06/11 08:19:45;;;;;;;6.77;6.17;;;29.60;73.40;;;;;;4961043;29;20637;-79
2021/06/11 08:22:10;;;;;;;7.00;6.40;;;29.50;75.70;;;;;;4961528;28;20556;-79
2021/06/11 08:24:36;;;;;;;5.90;5.50;;;29.50;74.00;;;;;;4959370;29;20186;-79
2021/06/11 08:27:02;;;;;;;7.77;6.23;;;29.70;76.10;;;;;;4960080;28;20289;-79
2021/06/11 08:29:27;;;;;;;11.27;6.23;;;29.40;75.80;;;;;;4960302;28;20202;-79
2021/06/11 08:31:53;;;;;;;11.70;6.20;;;29.40;75.40;;;;;;4966153;28;20214;-79
2021/06/11 08:34:19;;;;;;;6.80;6.10;;;29.90;68.70;;;;;;4959482;28;20225;-79
2021/06/11 08:36:44;;;;;;;7.50;6.30;;;30.50;74.90;;;;;;4960130;29;20174;-80
2021/06/11 08:39:10;;;;;;;9.00;5.93;;;30.10;68.40;;;;;;4960993;28;20229;-79
2021/06/11 08:41:36;;;;;;;6.80;6.10;;;30.10;74.90;;;;;;4959934;28;20198;-80
2021/06/11 08:44:02;;;;;;;6.33;5.20;;;30.20;71.00;;;;;;4960559;28;20265;-79
2021/06/11 08:46:29;;;;;;;6.60;5.67;;;29.80;72.60;;;;;;4960428;28;20488;-79
2021/06/11 08:48:58;;;;;;;10.20;6.17;;;29.80;68.00;;;;;;4959169;28;20418;-79
2021/06/11 08:51:24;;;;;;;6.40;4.87;;;29.10;74.80;;;;;;4949575;29;20485;-80
2021/06/11 08:53:49;;;;;;;5.80;5.20;;;29.10;75.30;;;;;;4956375;29;20422;-79
2021/06/11 08:56:15;;;;;;;6.60;6.07;;;29.90;76.10;;;;;;4956927;28;20650;-79
2021/06/11 08:58:41;;;;;;;6.70;6.10;;;29.60;70.90;;;;;;4956374;28;20597;-78
2021/06/11 09:01:07;;;;;;;7.90;6.80;;;29.60;70.80;;;;;;4956710;28;20293;-80
2021/06/11 09:03:44;;;;;;;7.47;6.70;;;29.70;74.50;;;;;;4959945;28;20189;-80
2021/06/11 09:06:13;;;;;;;6.20;4.90;;;30.00;64.60;;;;;;4960284;29;21336;-79
2021/06/11 09:08:40;;;;;;;5.90;4.97;;;29.20;78.80;;;;;;4959925;28;20480;-80
2021/06/11 09:11:12;;;;;;;6.03;5.53;;;29.60;73.20;;;;;;4956118;28;20492;-80
2021/06/11 09:13:41;;;;;;;6.93;5.40;;;30.10;70.60;;;;;;4959456;28;20508;-79
2021/06/11 09:16:22;;;;;;;5.33;4.93;;;30.40;73.70;;;;;;4954124;29;20458;-79
2021/06/11 09:18:53;;;;;;;7.60;6.07;;;30.30;70.60;;;;;;4954718;29;20421;-77
2021/06/11 09:21:32;;;;;;;6.77;5.80;;;29.00;76.00;;;;;;4958176;28;20442;-78
2021/06/11 09:26:59;;;;;;;7.77;6.80;;;28.60;76.80;;;;;;4954768;28;20504;-77
2021/06/11 09:29:32;;;;;;;7.60;6.20;;;28.90;78.40;;;;;;4955265;28;20410;-77
2021/06/11 09:32:18;;;;;;;9.40;6.43;;;29.10;75.40;;;;;;4954918;29;20489;-77
2021/06/11 09:34:56;;;;;;;8.93;6.30;;;29.20;76.30;;;;;;4958139;28;20453;-77
2021/06/11 09:37:28;;;;;;;7.30;6.17;;;28.50;75.40;;;;;;4954569;28;20509;-77
2021/06/11 09:40:03;;;;;;;6.10;5.57;;;28.20;83.60;;;;;;4953792;29;20797;-77
2021/06/11 09:42:34;;;;;;;7.47;6.10;;;27.20;78.90;;;;;;4954663;28;20480;-77
2021/06/11 09:45:03;;;;;;;10.63;6.20;;;27.50;77.30;;;;;;4954879;28;20461;-81
2021/06/11 09:47:29;;;;;;;8.23;6.77;;;28.10;73.80;;;;;;4955061;28;20414;-78
2021/06/11 09:49:54;;;;;;;6.80;6.10;;;27.80;78.70;;;;;;4955293;28;20906;-77
2021/06/11 09:52:20;;;;;;;5.93;5.40;;;27.70;81.50;;;;;;4954652;28;20485;-77
2021/06/11 09:54:45;;;;;;;6.30;5.70;;;28.50;80.90;;;;;;4955006;28;20581;-78
2021/06/11 09:57:21;;;;;;;6.40;5.80;;;28.80;77.70;;;;;;4954083;28;20253;-77
2021/06/11 09:59:46;;;;;;;7.53;6.83;;;28.80;74.80;;;;;;4954516;28;20213;-77
2021/06/11 10:02:16;;;;;;;6.17;5.50;;;29.00;77.20;;;;;;4954162;28;20453;-77
2021/06/11 10:04:44;;;;;;;13.00;6.40;;;28.00;71.60;;;;;;4954591;28;20166;-77
2021/06/11 10:07:11;;;;;;;6.80;5.70;;;27.00;78.40;;;;;;4953733;28;20454;-76
2021/06/11 10:09:37;;;;;;;7.70;5.90;;;26.50;84.00;;;;;;4954445;28;20410;-76
2021/06/11 10:12:03;;;;;;;8.00;5.67;;;27.30;85.00;;;;;;4952252;28;20516;-77
2021/06/11 10:14:29;;;;;;;8.10;6.07;;;28.20;82.60;;;;;;4990165;23;20504;-79
2021/06/11 10:16:55;;;;;;;5.37;4.70;;;29.00;74.80;;;;;;4966146;28;20481;-79
2021/06/11 10:19:20;;;;;;;4.70;4.30;;;29.40;72.00;;;;;;4968687;28;20905;-79
2021/06/11 10:21:46;;;;;;;7.00;4.60;;;29.10;72.10;;;;;;4979582;28;20178;-80
2021/06/11 10:24:14;;;;;;;8.80;4.60;;;28.40;73.10;;;;;;4963030;28;20210;-79
2021/06/11 10:26:41;;;;;;;7.03;3.77;;;28.10;77.20;;;;;;4954976;29;20310;-80
2021/06/11 10:29:12;;;;;;;5.73;4.70;;;27.50;74.70;;;;;;4956488;29;20910;-79
2021/06/11 10:31:38;;;;;;;6.30;5.53;;;26.70;78.60;;;;;;4955843;29;20429;-79
2021/06/11 10:34:04;;;;;;;17.53;4.60;;;26.50;84.70;;;;;;4954017;28;20434;-79
2021/06/11 10:36:32;;;;;;;5.93;5.20;;;27.40;84.40;;;;;;4954511;28;20450;-79
2021/06/11 10:39:01;;;;;;;6.83;6.13;;;27.70;80.10;;;;;;4955324;28;20426;-79
2021/06/11 10:41:47;;;;;;;6.80;6.00;;;28.30;76.30;;;;;;4955697;28;20430;-79
2021/06/11 10:44:36;;;;;;;5.33;4.83;;;27.80;78.70;;;;;;4970018;28;20564;-79
2021/06/11 10:47:17;;;;;;;5.13;4.67;;;27.40;83.10;;;;;;4953443;28;20519;-79
2021/06/11 10:50:01;;;;;;;7.20;5.00;;;28.20;83.30;;;;;;4954308;28;20402;-79
2021/06/11 10:52:49;;;;;;;6.20;4.70;;;28.80;78.40;;;;;;4954465;29;20505;-80
2021/06/11 10:55:18;;;;;;;6.60;4.93;;;28.90;81.70;;;;;;4959942;28;20520;-80
2021/06/11 10:57:52;;;;;;;4.70;4.10;;;28.50;78.00;;;;;;4961581;29;20414;-79
2021/06/11 11:00:26;;;;;;;5.80;4.43;;;28.70;76.80;;;;;;4962337;28;20436;-80
2021/06/11 11:02:54;;;;;;;10.90;5.10;;;28.50;77.50;;;;;;4962415;28;20557;-79
2021/06/11 11:05:39;;;;;;;5.07;4.57;;;28.20;79.10;;;;;;4962275;28;20496;-80
2021/06/11 11:08:09;;;;;;;4.70;4.30;;;28.10;80.60;;;;;;4962470;28;20414;-80
2021/06/11 11:10:36;;;;;;;5.20;3.73;;;28.80;78.90;;;;;;4962853;28;20450;-80
2021/06/11 11:13:10;;;;;;;4.47;3.93;;;28.40;75.20;;;;;;4963387;28;20417;-80
2021/06/11 11:15:43;;;;;;;4.10;3.80;;;27.60;77.80;;;;;;4968057;28;20853;-79
2021/06/11 11:18:32;;;;;;;10.23;4.77;;;27.40;77.90;;;;;;4962209;28;20417;-79
2021/06/11 11:20:58;;;;;;;5.67;5.07;;;27.70;76.10;;;;;;4962274;28;20401;-80
2021/06/11 11:23:26;;;;;;;4.53;3.67;;;28.30;80.40;;;;;;4961661;28;20433;-79
2021/06/11 11:25:52;;;;;;;3.97;3.57;;;28.10;77.50;;;;;;4959303;28;20481;-79
2021/06/11 11:28:19;;;;;;;3.57;3.20;;;28.60;78.90;;;;;;4958682;28;20425;-79
2021/06/11 11:30:46;;;;;;;4.70;3.53;;;29.10;78.90;;;;;;4957087;28;20480;-79
2021/06/11 11:33:12;;;;;;;6.40;3.70;;;28.60;73.10;;;;;;4961895;28;20461;-80
2021/06/11 11:35:41;;;;;;;8.50;3.70;;;27.50;75.80;;;;;;4961568;29;20465;-80
2021/06/11 11:38:09;;;;;;;7.43;3.50;;;27.40;77.90;;;;;;4967725;29;20483;-80
2021/06/11 11:40:36;;;;;;;3.53;2.90;;;27.20;75.10;;;;;;4974188;29;20424;-80
2021/06/11 11:43:02;;;;;;;4.83;3.23;;;26.90;79.70;;;;;;4977919;28;20425;-80
2021/06/11 11:45:31;;;;;;;7.10;2.87;;;27.00;81.10;;;;;;4974558;28;20524;-80
2021/06/11 11:47:58;;;;;;;5.53;3.57;;;27.60;82.00;;;;;;4968880;28;20453;-80
2021/06/11 11:50:26;;;;;;;3.57;3.20;;;27.80;81.00;;;;;;4970550;28;20422;-81
2021/06/11 11:52:52;;;;;;;3.53;3.23;;;;;;;;;;4971449;28;20418;-80
2021/06/11 11:55:18;;;;;;;2.80;2.40;;;28.00;75.20;;;;;;4971177;28;20436;-80
2021/06/11 11:57:45;;;;;;;4.07;2.80;;;27.90;74.70;;;;;;4970804;28;20183;-80
2021/06/11 12:00:12;;;;;;;3.20;2.30;;;28.30;77.40;;;;;;4959887;28;20669;-80
2021/06/11 12:02:38;;;;;;;4.90;2.30;;;28.00;70.30;;;;;;4966274;28;20976;-80
2021/06/11 12:05:04;;;;;;;2.30;2.10;;;28.10;74.50;;;;;;4968530;28;20441;-80
2021/06/11 12:07:30;;;;;;;3.23;2.93;;;27.70;77.00;;;;;;4963860;28;20170;-80
2021/06/11 12:09:56;;;;;;;2.53;2.33;;;27.80;75.30;;;;;;4967404;28;20454;-81
2021/06/11 12:12:21;;;;;;;2.80;2.60;;;28.20;73.10;;;;;;4965696;29;20170;-80
2021/06/11 12:14:47;;;;;;;5.77;2.80;;;27.80;74.20;;;;;;4961495;28;20457;-79
2021/06/11 12:17:13;;;;;;;3.23;2.93;;;27.20;71.90;;;;;;4959778;28;20196;-80
2021/06/11 12:19:39;;;;;;;7.67;2.67;;;27.00;76.90;;;;;;4959689;28;20195;-79
2021/06/11 12:22:05;;;;;;;3.87;2.10;;;26.70;74.50;;;;;;4960272;28;20178;-80
2021/06/11 12:24:31;;;;;;;2.40;2.20;;;26.90;77.30;;;;;;4959087;28;20445;-80
2021/06/11 12:26:56;;;;;;;3.27;2.10;;;27.30;76.10;;;;;;4959272;28;20450;-80
2021/06/11 12:29:22;;;;;;;3.13;2.23;;;27.00;79.30;;;;;;4961244;29;20425;-80
2021/06/11 12:31:49;;;;;;;3.57;2.70;;;27.00;73.80;;;;;;4967189;28;20769;-80
2021/06/11 12:34:14;;;;;;;5.93;3.07;;;27.10;77.50;;;;;;4966711;28;20198;-80
2021/06/11 12:36:40;;;;;;;2.50;2.30;;;26.90;80.60;;;;;;4966752;29;20422;-80
2021/06/11 12:39:06;;;;;;;2.47;2.27;;;27.30;71.30;;;;;;4969936;28;20194;-81
2021/06/11 12:41:36;;;;;;;2.10;1.90;;;27.50;79.30;;;;;;4968693;28;20241;-81
2021/06/11 12:44:20;;;;;;;5.40;2.13;;;27.60;75.70;;;;;;4966085;28;20205;-81
2021/06/11 12:46:53;;;;;;;4.60;1.77;;;27.90;79.00;;;;;;4959695;29;20497;-81
2021/06/11 12:49:21;;;;;;;1.57;1.43;;;27.70;74.70;;;;;;4965285;29;20418;-80
2021/06/11 12:51:48;;;;;;;3.17;2.00;;;27.10;71.20;;;;;;4966814;28;20914;-81
2021/06/11 12:54:13;;;;;;;1.80;1.70;;;27.00;74.90;;;;;;4967082;28;20517;-81
2021/06/11 12:56:41;;;;;;;2.23;2.03;;;26.80;76.80;;;;;;4968529;28;20421;-81
2021/06/11 12:59:07;;;;;;;3.03;1.90;;;26.70;74.40;;;;;;4970061;28;20171;-81
2021/06/11 13:01:33;;;;;;;4.73;2.30;;;26.50;72.80;;;;;;4971315;28;20442;-81
2021/06/11 13:03:59;;;;;;;5.63;2.80;;;26.50;78.20;;;;;;4962289;28;20526;-81
2021/06/11 13:06:25;;;;;;;3.00;2.73;;;27.00;80.20;;;;;;4968654;29;20289;-82
2021/06/11 13:08:51;;;;;;;5.73;3.00;;;27.30;77.30;;;;;;4968191;29;20418;-82
2021/06/11 13:11:17;;;;;;;3.67;2.40;;;27.40;83.30;;;;;;4969358;28;20194;-80
2021/06/11 13:13:42;;;;;;;5.37;2.90;;;27.50;77.90;;;;;;4969663;28;20214;-80
2021/06/11 13:16:08;;;;;;;3.90;3.50;;;27.20;74.70;;;;;;4968851;28;20198;-80
2021/06/11 13:18:33;;;;;;;4.70;3.03;;;26.80;76.60;;;;;;4966740;28;20174;-80
2021/06/11 13:20:59;;;;;;;7.13;3.00;;;26.20;78.90;;;;;;4965080;29;20187;-80
2021/06/11 13:23:25;;;;;;;4.97;3.10;;;26.40;82.10;;;;;;4966275;28;20261;-80
2021/06/11 13:25:51;;;;;;;3.17;2.67;;;26.90;78.40;;;;;;4967215;28;20671;-80
2021/06/11 13:28:16;;;;;;;5.67;3.07;;;27.30;79.90;;;;;;4968519;28;20238;-81
2021/06/11 13:30:42;;;;;;;3.90;2.70;;;27.50;74.30;;;;;;4966530;28;20178;-80
2021/06/11 13:33:09;;;;;;;11.93;3.50;;;27.10;72.40;;;;;;4960734;28;20198;-80
2021/06/11 13:35:35;;;;;;;4.20;3.23;;;26.50;76.90;;;;;;4959422;29;20234;-80
2021/06/11 13:38:00;;;;;;;4.53;3.00;;;26.20;77.00;;;;;;4962804;28;20415;-80
2021/06/11 13:40:26;;;;;;;3.50;3.10;;;25.80;79.70;;;;;;4965913;28;20178;-79
2021/06/11 13:42:51;;;;;;;8.77;3.20;;;25.80;79.40;;;;;;4960126;28;20217;-78
2021/06/11 13:45:20;;;;;;;5.63;3.10;;;25.80;74.80;;;;;;4955251;28;20209;-79
2021/06/11 13:47:46;;;;;;;8.47;2.93;;;25.80;77.20;;;;;;4972035;28;20175;-79
2021/06/11 13:50:18;;;;;;;3.23;2.93;;;26.10;77.50;;;;;;4958181;28;20415;-77
2021/06/11 13:52:44;;;;;;;6.40;3.17;;;25.80;77.10;;;;;;4959479;28;20438;-79
2021/06/11 13:55:11;;;;;;;4.93;3.83;;;25.90;77.80;;;;;;4958915;28;20435;-79
2021/06/11 13:57:37;;;;;;;4.57;2.93;;;25.90;79.80;;;;;;4957400;28;20517;-78
2021/06/11 14:00:06;;;;;;;6.93;3.20;;;26.10;77.30;;;;;;4953475;29;20501;-79
2021/06/11 14:02:32;;;;;;;6.17;2.87;;;26.20;79.30;;;;;;4956831;29;20179;-80
2021/06/11 14:04:57;;;;;;;9.50;3.63;;;26.20;77.80;;;;;;4961128;28;20441;-79
2021/06/11 14:07:23;;;;;;;8.87;3.10;;;25.70;77.40;;;;;;4968795;28;20230;-79
2021/06/11 14:09:48;;;;;;;3.40;3.10;;;25.80;77.50;;;;;;4974704;28;20178;-79
2021/06/11 14:12:14;;;;;;;6.67;3.90;;;25.90;75.80;;;;;;4975462;28;20176;-79
2021/06/11 14:14:39;;;;;;;3.90;3.40;;;25.40;74.50;;;;;;4976759;28;20205;-80
2021/06/11 14:17:05;;;;;;;3.93;3.50;;;25.40;81.40;;;;;;4974532;28;20174;-77
2021/06/11 14:19:30;;;;;;;7.73;5.30;;;25.50;79.40;;;;;;4973971;28;20630;-79
2021/06/11 14:21:56;;;;;;;6.67;4.70;;;25.70;79.10;;;;;;4974256;28;20178;-79
2021/06/11 14:24:21;;;;;;;6.93;5.50;;;25.90;79.40;;;;;;4975125;28;20220;-79
2021/06/11 14:26:47;;;;;;;13.20;5.17;;;25.90;79.20;;;;;;4973001;28;20200;-79
2021/06/11 14:29:12;;;;;;;4.90;4.47;;;26.10;73.90;;;;;;4974357;28;20182;-79
2021/06/11 14:31:38;;;;;;;5.20;4.80;;;26.20;79.40;;;;;;4974867;28;20177;-79
2021/06/11 14:34:03;;;;;;;5.50;5.00;;;26.60;78.20;;;;;;4974193;28;20277;-79
2021/06/11 14:36:29;;;;;;;10.17;5.80;;;26.70;79.50;;;;;;4975246;28;20178;-79
2021/06/11 14:38:54;;;;;;;19.00;5.30;;;26.80;76.60;;;;;;4975240;28;20253;-79
2021/06/11 14:41:20;;;;;;;5.77;5.27;;;26.60;73.60;;;;;;4975519;28;20583;-79
2021/06/11 14:43:45;;;;;;;5.70;5.20;;;26.30;77.60;;;;;;4975524;28;20193;-79
2021/06/11 14:46:11;;;;;;;7.73;5.93;;;26.40;76.70;;;;;;4974443;28;20212;-80
2021/06/11 14:48:37;;;;;;;6.30;5.80;;;26.30;78.80;;;;;;4976606;28;20209;-79
2021/06/11 14:51:02;;;;;;;15.43;5.83;;;26.10;77.70;;;;;;4976459;28;20212;-80
2021/06/11 14:53:33;;;;;;;9.87;5.80;;;25.90;77.10;;;;;;4973186;28;20231;-77
2021/06/11 14:56:23;;;;;;;5.40;4.93;;;25.40;76.10;;;;;;4976334;28;20177;-80
2021/06/11 14:58:48;;;;;;;8.43;6.20;;;25.30;80.70;;;;;;4953702;29;20816;-79
2021/06/11 15:01:14;;;;;;;7.10;6.50;;;25.70;81.90;;;;;;4957102;28;20522;-81
2021/06/11 15:03:40;;;;;;;11.60;5.90;;;26.10;79.80;;;;;;4958885;28;20210;-81
2021/06/11 15:06:07;;;;;;;6.10;5.50;;;26.30;79.90;;;;;;4958972;28;20461;-80
2021/06/11 15:08:34;;;;;;;6.60;5.27;;;26.30;79.30;;;;;;4959386;28;20171;-79
2021/06/11 15:11:00;;;;;;;5.63;5.13;;;26.40;83.90;;;;;;4962132;28;20418;-80
2021/06/11 15:13:26;;;;;;;5.60;5.10;;;25.90;78.70;;;;;;4964448;29;20493;-80
2021/06/11 15:15:53;;;;;;;5.37;4.90;;;25.40;80.90;;;;;;4955373;29;20419;-79
2021/06/11 15:18:19;;;;;;;6.23;4.93;;;25.40;80.20;;;;;;4939753;29;20188;-80
2021/06/11 15:20:45;;;;;;;6.50;4.70;;;25.30;82.50;;;;;;4957574;29;20794;-80
2021/06/11 15:23:10;;;;;;;4.87;4.47;;;24.90;82.80;;;;;;4959413;28;20525;-79
2021/06/11 15:25:36;;;;;;;9.20;4.83;;;24.80;81.50;;;;;;4959759;28;20199;-79
2021/06/11 15:28:02;;;;;;;4.73;4.30;;;24.80;81.80;;;;;;4959506;29;20171;-79
2021/06/11 15:30:27;;;;;;;4.57;4.20;;;24.90;80.90;;;;;;4960759;28;20179;-79
2021/06/11 15:32:53;;;;;;;6.10;4.20;;;25.20;81.00;;;;;;4960169;28;20457;-79
2021/06/11 15:35:19;;;;;;;6.13;3.90;;;25.60;80.60;;;;;;4957917;28;20217;-80
2021/06/11 15:37:45;;;;;;;4.17;3.77;;;25.80;78.90;;;;;;4957089;28;20248;-79
2021/06/11 15:40:11;;;;;;;6.97;4.40;;;25.80;81.00;;;;;;4958734;28;20185;-79
2021/06/11 15:42:37;;;;;;;6.37;4.27;;;25.80;81.00;;;;;;4961324;28;20611;-79
2021/06/11 15:45:04;;;;;;;6.07;4.23;;;25.80;81.20;;;;;;4961044;28;20438;-79
2021/06/11 15:47:30;;;;;;;4.70;4.30;;;25.80;82.20;;;;;;4960162;28;20562;-79
2021/06/11 15:49:58;;;;;;;5.57;4.73;;;25.70;81.50;;;;;;4959725;28;20968;-80
2021/06/11 15:52:27;;;;;;;6.37;3.80;;;25.70;81.20;;;;;;4960901;29;20179;-80
2021/06/11 15:54:53;;;;;;;5.47;3.63;;;25.80;81.60;;;;;;4960021;29;20437;-80
2021/06/11 15:57:19;;;;;;;4.33;3.93;;;25.20;80.30;;;;;;4961448;28;20541;-79
2021/06/11 15:59:45;;;;;;;5.60;4.03;;;24.70;82.70;;;;;;4963081;28;20477;-79
2021/06/11 16:02:11;;;;;;;4.10;3.17;;;24.50;82.50;;;;;;4962093;28;20965;-79
2021/06/11 16:04:36;;;;;;;6.90;4.03;;;24.60;82.40;;;;;;4973751;28;20191;-79
2021/06/11 16:07:02;;;;;;;5.13;4.20;;;24.30;82.30;;;;;;4977612;28;20229;-79
2021/06/11 16:09:28;;;;;;;6.40;3.70;;;24.20;84.40;;;;;;4975773;28;20186;-80
2021/06/11 16:11:56;;;;;;;4.47;3.87;;;24.30;82.00;;;;;;4978388;28;20187;-78
2021/06/11 16:14:22;;;;;;;4.87;4.00;;;24.40;85.00;;;;;;4972876;28;20470;-80
2021/06/11 16:16:48;;;;;;;4.30;3.30;;;24.60;81.70;;;;;;4977889;29;20453;-80
2021/06/11 16:19:14;;;;;;;3.67;3.30;;;24.80;85.00;;;;;;4978199;28;20418;-80
2021/06/11 16:21:39;;;;;;;6.83;3.93;;;24.20;81.90;;;;;;4963846;28;20709;-80
2021/06/11 16:24:05;;;;;;;5.33;3.27;;;23.60;82.90;;;;;;4961891;28;20219;-80
2021/06/11 16:26:31;;;;;;;4.27;3.20;;;23.90;86.10;;;;;;4956052;28;20199;-80
2021/06/11 16:28:57;;;;;;;3.60;2.87;;;24.00;84.80;;;;;;4962114;29;20422;-80
2021/06/11 16:31:23;;;;;;;6.30;3.10;;;24.00;84.50;;;;;;4961301;28;20226;-80
2021/06/11 16:33:48;;;;;;;3.57;2.80;;;24.00;83.60;;;;;;4952856;28;20192;-80
2021/06/11 16:36:14;;;;;;;6.70;3.30;;;24.10;83.90;;;;;;4941185;29;20441;-81
2021/06/11 16:38:42;;;;;;;3.93;3.60;;;24.00;84.40;;;;;;4941014;29;20176;-80
2021/06/11 16:41:08;;;;;;;3.33;3.13;;;24.00;84.60;;;;;;4942252;29;20227;-80
2021/06/11 16:43:35;;;;;;;10.07;4.27;;;24.10;83.90;;;;;;4956736;28;20450;-80
2021/06/11 16:46:00;;;;;;;9.90;3.60;;;24.10;84.60;;;;;;4959890;29;20490;-79
2021/06/11 16:48:26;;;;;;;3.40;3.20;;;24.00;85.50;;;;;;4958697;29;20467;-80
2021/06/11 16:50:52;;;;;;;4.77;3.40;;;24.00;83.40;;;;;;4957592;28;20310;-80